createdAt,value
2023-01-11T00:02:03.485Z,-10.44
2023-01-11T00:04:30.847Z,-10.46
2023-01-11T00:06:58.208Z,-10.52
2023-01-11T00:09:25.252Z,-10.55
2023-01-11T00:11:52.310Z,-10.42
2023-01-11T00:14:19.361Z,-10.45
2023-01-11T00:16:46.514Z,-10.39
2023-01-11T00:19:13.805Z,-10.62
2023-01-11T00:21:40.805Z,-10.63
2023-01-11T00:24:07.838Z,-10.66
2023-01-11T00:26:34.838Z,-10.72
2023-01-11T00:29:02.013Z,-10.73
2023-01-11T00:31:29.217Z,-10.66
2023-01-11T00:33:57.227Z,-10.61
2023-01-11T00:36:24.213Z,-10.55
2023-01-11T00:38:55.545Z,-10.86
2023-01-11T00:41:42.675Z,-10.63
2023-01-11T00:44:30.155Z,-10.53
2023-01-11T00:47:16.853Z,-10.31
2023-01-11T00:49:45.055Z,-10.28
2023-01-11T00:52:12.090Z,-10.44
2023-01-11T00:54:40.317Z,-10.26
2023-01-11T00:57:08.342Z,-10.34
2023-01-11T00:59:36.876Z,-10.39
2023-01-11T01:02:04.545Z,-10.57
2023-01-11T01:04:32.183Z,-10.45
2023-01-11T01:06:59.299Z,-10.47
2023-01-11T01:09:26.772Z,-10.42
2023-01-11T01:11:53.788Z,-10.37
2023-01-11T01:14:26.827Z,-10.29
2023-01-11T01:16:58.659Z,-10.32
2023-01-11T01:19:27.947Z,-10.42
2023-01-11T01:21:56.378Z,-10.34
2023-01-11T01:24:24.713Z,-10.29
2023-01-11T01:26:51.774Z,-10.18
2023-01-11T01:29:18.991Z,-10.28
2023-01-11T01:31:46.158Z,-10.26
2023-01-11T01:34:13.841Z,-10.14
2023-01-11T01:36:41.092Z,-10.01
2023-01-11T01:39:08.709Z,-10.04
2023-01-11T01:41:36.045Z,-10.27
2023-01-11T01:44:06.423Z,-10.15
2023-01-11T01:46:34.480Z,-10.24
2023-01-11T01:49:09.783Z,-10.27
2023-01-11T01:51:55.106Z,-10.21
2023-01-11T01:54:30.209Z,-10.13
2023-01-11T01:57:02.675Z,-10.16
2023-01-11T01:59:33.475Z,-10.17
2023-01-11T02:02:01.265Z,-10.26
2023-01-11T02:04:33.263Z,-10.36
2023-01-11T02:07:10.136Z,-10.31
2023-01-11T02:09:53.319Z,-10.33
2023-01-11T02:12:21.491Z,-10.33
2023-01-11T02:14:49.649Z,-10.53
2023-01-11T02:17:16.601Z,-10.22
2023-01-11T02:20:08.737Z,-10.44
2023-01-11T02:22:38.697Z,-10.34
2023-01-11T02:25:38.540Z,-10.22
2023-01-11T02:28:15.005Z,-10.29
2023-01-11T02:30:42.014Z,-10.36
2023-01-11T02:33:17.780Z,-10.31
2023-01-11T02:36:07.563Z,-10.40
2023-01-11T02:38:52.241Z,-10.35
2023-01-11T02:42:10.100Z,-10.46
2023-01-11T02:45:02.140Z,-10.33
2023-01-11T02:47:51.739Z,-10.46
2023-01-11T02:50:56.433Z,-10.32
2023-01-11T02:53:30.737Z,-10.45
2023-01-11T02:56:01.796Z,-10.33
2023-01-11T02:58:33.571Z,-10.53
2023-01-11T03:01:01.170Z,-10.39
2023-01-11T03:03:28.424Z,-10.27
2023-01-11T03:06:00.589Z,-10.24
2023-01-11T03:08:38.059Z,-10.26
2023-01-11T03:11:14.747Z,-10.47
2023-01-11T03:14:04.823Z,-10.33
2023-01-11T03:16:43.438Z,-10.25
2023-01-11T03:19:13.231Z,-10.22
2023-01-11T03:21:50.161Z,-10.30
2023-01-11T03:24:24.860Z,-10.18
2023-01-11T03:27:10.529Z,-10.23
2023-01-11T03:29:37.548Z,-10.52
2023-01-11T03:32:04.826Z,-10.37
2023-01-11T03:34:48.386Z,-10.42
2023-01-11T03:37:29.589Z,-10.26
2023-01-11T03:40:19.191Z,-10.01
2023-01-11T03:43:09.805Z,-9.98
2023-01-11T03:45:46.819Z,-10.16
2023-01-11T03:48:26.383Z,-10.07
2023-01-11T03:50:56.787Z,-10.23
2023-01-11T03:53:27.025Z,-10.13
2023-01-11T03:55:58.812Z,-10.17
2023-01-11T03:58:28.642Z,-10.35
2023-01-11T04:00:57.105Z,-10.40
2023-01-11T04:03:26.965Z,-10.42
2023-01-11T04:05:59.542Z,-10.54
2023-01-11T04:08:26.887Z,-10.40
2023-01-11T04:10:54.125Z,-10.50
2023-01-11T04:13:21.198Z,-10.41
2023-01-11T04:15:48.195Z,-10.32
2023-01-11T04:18:15.176Z,-10.45
2023-01-11T04:20:42.172Z,-10.55
2023-01-11T04:23:12.408Z,-10.54
2023-01-11T04:25:39.452Z,-10.56
2023-01-11T04:28:06.480Z,-10.44
2023-01-11T04:30:34.056Z,-10.55
2023-01-11T04:33:01.068Z,-10.47
2023-01-11T04:35:28.089Z,-10.43
2023-01-11T04:37:56.137Z,-10.31
2023-01-11T04:40:23.804Z,-10.45
2023-01-11T04:42:50.981Z,-10.35
2023-01-11T04:45:17.981Z,-10.52
2023-01-11T04:47:46.246Z,-10.42
2023-01-11T04:50:13.365Z,-10.53
2023-01-11T04:52:41.895Z,-10.47
2023-01-11T04:55:09.585Z,-10.52
2023-01-11T04:57:36.906Z,-10.32
2023-01-11T05:00:08.954Z,-10.31
2023-01-11T05:02:36.182Z,-10.32
2023-01-11T05:05:04.292Z,-10.35
2023-01-11T05:07:31.578Z,-10.46
2023-01-11T05:09:58.617Z,-10.57
2023-01-11T05:12:25.942Z,-10.33
2023-01-11T05:14:53.048Z,-10.43
2023-01-11T05:17:20.100Z,-10.54
2023-01-11T05:19:47.416Z,-10.39
2023-01-11T05:22:14.569Z,-10.28
2023-01-11T05:24:41.671Z,-10.30
2023-01-11T05:27:09.336Z,-10.38
2023-01-11T05:29:36.450Z,-10.52
2023-01-11T05:32:03.533Z,-10.38
2023-01-11T05:34:31.090Z,-10.39
2023-01-11T05:36:58.116Z,-10.15
2023-01-11T05:39:25.268Z,-10.15
2023-01-11T05:41:52.294Z,-10.25
2023-01-11T05:44:37.808Z,-10.27
2023-01-11T05:47:04.994Z,-10.15
2023-01-11T05:49:32.198Z,-10.11
2023-01-11T05:51:59.237Z,-10.25
2023-01-11T05:54:26.287Z,-10.18
2023-01-11T05:56:53.369Z,-10.25
2023-01-11T05:59:20.523Z,-10.25
2023-01-11T06:01:48.634Z,-10.19
2023-01-11T06:04:15.856Z,-10.01
2023-01-11T06:06:42.914Z,-10.07
2023-01-11T06:09:10.041Z,-10.00
2023-01-11T06:11:37.096Z,-9.93
2023-01-11T06:14:04.191Z,-9.99
2023-01-11T06:16:31.430Z,-9.89
2023-01-11T06:18:58.513Z,-10.01
2023-01-11T06:21:25.739Z,-9.85
2023-01-11T06:23:52.903Z,-9.89
2023-01-11T06:26:22.423Z,-9.83
2023-01-11T06:28:50.594Z,-9.66
2023-01-11T06:31:18.438Z,-9.61
2023-01-11T06:33:46.679Z,-9.60
2023-01-11T06:36:15.215Z,-9.60
2023-01-11T06:38:42.900Z,-9.66
2023-01-11T06:41:11.604Z,-9.52
2023-01-11T06:43:42.072Z,-9.27
2023-01-11T06:46:14.678Z,-9.19
2023-01-11T06:48:42.524Z,-9.31
2023-01-11T06:51:12.696Z,-9.40
2023-01-11T06:53:41.643Z,-9.38
2023-01-11T06:56:12.409Z,-9.38
2023-01-11T06:58:39.832Z,-9.39
2023-01-11T07:01:07.428Z,-9.37
2023-01-11T07:03:34.654Z,-9.29
2023-01-11T07:06:02.566Z,-9.23
2023-01-11T07:08:29.760Z,-9.38
2023-01-11T07:10:56.927Z,-9.01
2023-01-11T07:13:24.081Z,-9.07
2023-01-11T07:15:54.150Z,-9.16
2023-01-11T07:18:22.098Z,-9.00
2023-01-11T07:20:51.371Z,-8.93
2023-01-11T07:23:18.473Z,-9.14
2023-01-11T07:25:45.492Z,-9.00
2023-01-11T07:28:12.527Z,-8.97
2023-01-11T07:31:00.154Z,-8.96
2023-01-11T07:33:27.533Z,-8.85
2023-01-11T07:35:55.118Z,-8.79
2023-01-11T07:38:22.819Z,-8.73
2023-01-11T07:40:49.984Z,-8.69
2023-01-11T07:43:19.546Z,-8.69
2023-01-11T07:45:49.849Z,-8.64
2023-01-11T07:48:25.237Z,-8.71
2023-01-11T07:50:53.302Z,-8.63
2023-01-11T07:53:20.638Z,-8.56
2023-01-11T07:55:47.920Z,-8.68
2023-01-11T07:58:16.003Z,-8.53
2023-01-11T08:00:43.586Z,-8.33
2023-01-11T08:03:10.902Z,-8.32
2023-01-11T08:05:38.105Z,-8.20
2023-01-11T08:08:05.890Z,-8.01
2023-01-11T08:10:33.687Z,-7.92
2023-01-11T08:13:19.253Z,-8.02
2023-01-11T08:15:46.327Z,-8.07
2023-01-11T08:18:13.826Z,-8.17
2023-01-11T08:20:41.005Z,-8.49
2023-01-11T08:23:09.913Z,-8.18
2023-01-11T08:25:37.572Z,-8.42
2023-01-11T08:28:07.061Z,-8.30
2023-01-11T08:30:34.649Z,-8.27
2023-01-11T08:33:02.395Z,-8.18
2023-01-11T08:35:31.041Z,-7.85
2023-01-11T08:37:58.188Z,-7.76
2023-01-11T08:40:25.858Z,-7.77
2023-01-11T08:42:57.061Z,-7.94
2023-01-11T08:45:24.958Z,-8.08
2023-01-11T08:47:52.327Z,-7.99
2023-01-11T08:50:19.963Z,-7.91
2023-01-11T08:52:49.695Z,-7.82
2023-01-11T08:55:16.963Z,-7.93
2023-01-11T08:57:44.033Z,-7.91
2023-01-11T09:04:53.277Z,-7.52
2023-01-11T09:10:27.019Z,-7.42
2023-01-11T09:12:54.549Z,-7.35
2023-01-11T09:15:21.849Z,-7.23
2023-01-11T09:17:49.467Z,-7.06
2023-01-11T09:20:17.137Z,-7.13
2023-01-11T09:22:53.034Z,-6.99
2023-01-11T09:25:20.820Z,-7.27
2023-01-11T09:27:51.304Z,-7.55
2023-01-11T09:30:20.916Z,-7.50
2023-01-11T09:32:48.911Z,-7.39
2023-01-11T09:35:16.957Z,-7.38
2023-01-11T09:37:51.593Z,-7.35
2023-01-11T09:40:23.721Z,-7.42
2023-01-11T09:42:59.999Z,-7.28
2023-01-11T09:45:30.492Z,-7.40
2023-01-11T09:48:13.174Z,-7.76
2023-01-11T09:50:45.839Z,-7.93
2023-01-11T09:53:22.621Z,-7.86
2023-01-11T09:55:52.333Z,-7.76
2023-01-11T09:58:55.925Z,-7.70
2023-01-11T10:01:38.327Z,-7.43
2023-01-11T10:04:33.467Z,-7.48
2023-01-11T10:07:25.179Z,-7.43
2023-01-11T10:18:42.885Z,-7.10
2023-01-11T10:19:37.335Z,-7.32
2023-01-11T10:22:33.623Z,-7.36
2023-01-11T10:25:18.948Z,-7.27
2023-01-11T10:28:00.667Z,-7.37
2023-01-11T10:30:51.960Z,-7.43
2023-01-11T10:33:37.106Z,-7.34
2023-01-11T10:36:29.377Z,-7.26
2023-01-11T10:39:17.705Z,-7.14
2023-01-11T10:42:04.330Z,-7.05
2023-01-11T10:45:00.376Z,-7.02
2023-01-11T10:47:41.979Z,-7.24
2023-01-11T10:50:22.138Z,-7.44
2023-01-11T10:53:07.347Z,-7.38
2023-01-11T10:56:02.453Z,-7.35
2023-01-11T10:58:36.040Z,-7.36
2023-01-11T11:01:36.755Z,-7.53
2023-01-11T11:04:15.905Z,-7.85
2023-01-11T11:06:55.719Z,-7.80
2023-01-11T11:10:02.215Z,-7.52
2023-01-11T11:12:34.827Z,-7.60
2023-01-11T11:15:23.478Z,-7.54
2023-01-11T11:17:51.988Z,-7.52
2023-01-11T11:20:22.229Z,-7.54
2023-01-11T11:22:51.370Z,-7.33
2023-01-11T11:25:24.059Z,-7.27
2023-01-11T11:28:01.270Z,-7.45
2023-01-11T11:30:38.814Z,-7.35
2023-01-11T11:33:21.187Z,-7.26
2023-01-11T11:35:59.168Z,-7.33
2023-01-11T11:38:32.011Z,-7.37
2023-01-11T11:41:12.836Z,-7.45
2023-01-11T11:43:42.252Z,-7.39
2023-01-11T11:46:19.338Z,-7.26
2023-01-11T11:49:16.868Z,-7.14
2023-01-11T11:51:47.130Z,-7.21
2023-01-11T11:54:36.440Z,-7.30
2023-01-11T11:57:21.417Z,-7.50
2023-01-11T11:59:53.827Z,-7.39
2023-01-11T12:02:33.276Z,-7.42
2023-01-11T12:05:07.651Z,-7.43
2023-01-11T12:07:54.199Z,-7.39
2023-01-11T12:10:26.601Z,-7.35
2023-01-11T12:12:57.715Z,-7.31
2023-01-11T12:15:30.254Z,-7.13
2023-01-11T12:18:26.763Z,-6.93
2023-01-11T12:20:54.815Z,-6.90
2023-01-11T12:23:24.444Z,-7.02
2023-01-11T12:25:54.219Z,-7.19
2023-01-11T12:28:28.460Z,-7.26
2023-01-11T12:31:12.854Z,-7.21
2023-01-11T12:34:07.084Z,-7.10
2023-01-11T12:36:37.112Z,-7.27
2023-01-11T12:39:38.805Z,-7.28
2023-01-11T12:42:41.735Z,-7.39
2023-01-11T12:45:33.502Z,-7.40
2023-01-11T12:48:29.629Z,-7.43
2023-01-11T12:51:12.738Z,-7.25
2023-01-11T12:54:00.509Z,-7.32
2023-01-11T12:56:39.756Z,-7.40
2023-01-11T12:59:15.359Z,-7.61
2023-01-11T13:02:19.145Z,-7.50
2023-01-11T13:05:06.501Z,-7.39
2023-01-11T13:07:40.341Z,-7.48
2023-01-11T13:10:41.642Z,-7.38
2023-01-11T13:13:47.022Z,-7.29
2023-01-11T13:16:23.766Z,-7.33
2023-01-11T13:18:59.258Z,-7.47
2023-01-11T13:21:53.004Z,-7.38
2023-01-11T13:24:40.263Z,-7.43
2023-01-11T13:27:15.158Z,-7.42
2023-01-11T13:29:46.144Z,-7.33
2023-01-11T13:32:18.491Z,-7.59
2023-01-11T13:34:52.076Z,-7.73
2023-01-11T13:37:40.504Z,-7.81
2023-01-11T13:40:24.298Z,-7.79
2023-01-11T13:42:59.441Z,-7.68
2023-01-11T13:45:42.835Z,-7.52
2023-01-11T13:48:18.877Z,-7.45
2023-01-11T13:50:59.443Z,-7.31
2023-01-11T13:54:10.056Z,-7.29
2023-01-11T13:56:43.442Z,-7.27
2023-01-11T13:59:27.723Z,-7.17
2023-01-11T14:02:24.808Z,-7.35
2023-01-11T14:05:14.034Z,-7.43
2023-01-11T14:08:16.857Z,-7.34
2023-01-11T14:11:01.002Z,-7.17
2023-01-11T14:13:49.594Z,-7.23
2023-01-11T14:16:59.817Z,-7.00
2023-01-11T14:19:43.257Z,-7.02
2023-01-11T14:22:49.001Z,-7.12
2023-01-11T14:25:24.509Z,-7.25
2023-01-11T14:28:00.969Z,-7.26
2023-01-11T14:30:57.291Z,-7.39
2023-01-11T14:33:57.953Z,-7.36
2023-01-11T14:36:46.220Z,-7.37
2023-01-11T14:39:46.162Z,-7.30
2023-01-11T14:42:35.244Z,-7.42
2023-01-11T14:45:33.422Z,-7.25
2023-01-11T14:48:19.109Z,-7.28
2023-01-11T14:51:32.666Z,-7.19
2023-01-11T14:54:16.523Z,-7.09
2023-01-11T14:56:43.634Z,-6.97
2023-01-11T14:59:29.195Z,-7.12
2023-01-11T15:02:05.636Z,-7.14
2023-01-11T15:04:55.740Z,-7.21
2023-01-11T15:07:28.969Z,-7.32
2023-01-11T15:10:00.812Z,-7.32
2023-01-11T15:12:41.285Z,-7.49
2023-01-11T15:15:19.380Z,-7.45
2023-01-11T15:18:15.114Z,-7.33
2023-01-11T15:20:54.077Z,-7.60
2023-01-11T15:23:21.580Z,-7.82
2023-01-11T15:25:59.495Z,-7.74
2023-01-11T15:28:54.794Z,-7.82
2023-01-11T15:32:03.216Z,-7.83
2023-01-11T15:34:40.107Z,-7.96
2023-01-11T15:37:51.359Z,-7.95
2023-01-11T15:40:20.447Z,-8.05
2023-01-11T15:43:12.009Z,-8.03
2023-01-11T15:46:16.963Z,-7.89
2023-01-11T15:48:52.889Z,-8.05
2023-01-11T15:51:35.439Z,-8.03
2023-01-11T15:54:18.130Z,-7.99
2023-01-11T15:57:20.911Z,-7.72
2023-01-11T15:59:58.282Z,-7.75
2023-01-11T16:03:00.284Z,-7.62
2023-01-11T16:05:32.452Z,-7.61
2023-01-11T16:08:11.512Z,-7.69
2023-01-11T16:11:03.361Z,-7.53
2023-01-11T16:13:53.831Z,-7.46
2023-01-11T16:16:29.409Z,-7.37
2023-01-11T16:19:07.123Z,-7.49
2023-01-11T16:21:42.441Z,-7.53
2023-01-11T16:24:15.877Z,-7.52
2023-01-11T16:26:44.074Z,-7.63
2023-01-11T16:29:15.698Z,-7.65
2023-01-11T16:31:59.500Z,-7.68
2023-01-11T16:34:29.106Z,-7.73
2023-01-11T16:36:57.796Z,-7.87
2023-01-11T16:39:28.597Z,-7.94
2023-01-11T16:42:00.766Z,-7.82
2023-01-11T16:44:30.733Z,-7.77
2023-01-11T16:47:10.064Z,-7.55
2023-01-11T16:49:38.915Z,-7.46
2023-01-11T16:52:27.422Z,-7.23
2023-01-11T16:55:00.109Z,-7.32
2023-01-11T16:57:40.973Z,-7.13
2023-01-11T17:00:25.107Z,-7.05
2023-01-11T17:03:06.641Z,-6.82
2023-01-11T17:05:34.128Z,-7.03
2023-01-11T17:08:37.340Z,-7.02
2023-01-11T17:11:17.109Z,-7.01
2023-01-11T17:13:55.043Z,-6.90
2023-01-11T17:16:28.111Z,-6.91
2023-01-11T17:18:56.184Z,-6.83
2023-01-11T17:21:58.615Z,-6.67
2023-01-11T17:24:47.245Z,-6.58
2023-01-11T17:27:35.772Z,-6.81
2023-01-11T17:30:05.508Z,-7.09
2023-01-11T17:32:41.373Z,-6.93
2023-01-11T17:35:37.318Z,-6.90
2023-01-11T17:38:09.018Z,-6.93
2023-01-11T17:40:39.192Z,-6.75
2023-01-11T17:43:35.645Z,-6.61
2023-01-11T17:46:04.908Z,-6.59
2023-01-11T17:48:32.747Z,-6.83
2023-01-11T17:51:01.651Z,-6.97
2023-01-11T17:53:34.622Z,-6.90
2023-01-11T17:56:05.978Z,-6.80
2023-01-11T17:58:37.882Z,-6.60
2023-01-11T18:01:05.174Z,-6.63
2023-01-11T18:03:43.332Z,-6.52
2023-01-11T18:06:26.040Z,-6.42
2023-01-11T18:08:55.942Z,-6.43
2023-01-11T18:11:26.175Z,-6.50
2023-01-11T18:13:55.879Z,-6.51
2023-01-11T18:16:23.298Z,-6.61
2023-01-11T18:18:52.327Z,-6.78
2023-01-11T18:21:25.359Z,-6.69
2023-01-11T18:24:14.511Z,-6.76
2023-01-11T18:26:48.113Z,-6.61
2023-01-11T18:29:46.083Z,-6.65
2023-01-11T18:32:15.397Z,-6.52
2023-01-11T18:34:47.086Z,-6.56
2023-01-11T18:37:14.807Z,-6.40
2023-01-11T18:39:42.905Z,-6.32
2023-01-11T18:42:16.486Z,-6.38
2023-01-11T18:44:46.751Z,-6.24
2023-01-11T18:47:21.385Z,-6.42
2023-01-11T18:49:49.956Z,-6.37
2023-01-11T18:52:19.720Z,-6.45
2023-01-11T18:54:47.529Z,-6.53
2023-01-11T18:57:14.913Z,-6.40
2023-01-11T18:59:42.574Z,-6.43
2023-01-11T19:04:51.643Z,-6.34
2023-01-11T19:07:18.724Z,-6.20
2023-01-11T19:09:45.836Z,-6.14
2023-01-11T19:12:14.048Z,-6.22
2023-01-11T19:14:42.028Z,-6.28
2023-01-11T19:17:10.452Z,-6.34
2023-01-11T19:19:37.609Z,-6.42
2023-01-11T19:22:05.644Z,-6.21
2023-01-11T19:24:33.321Z,-6.18
2023-01-11T19:27:00.557Z,-6.12
2023-01-11T19:29:27.785Z,-6.59
2023-01-11T19:31:57.836Z,-6.42
2023-01-11T19:34:27.777Z,-6.40
2023-01-11T19:36:54.921Z,-6.28
2023-01-11T19:39:22.027Z,-6.09
2023-01-11T19:42:00.203Z,-6.22
2023-01-11T19:44:31.407Z,-6.13
2023-01-11T19:47:10.278Z,-6.03
2023-01-11T19:49:39.689Z,-6.08
2023-01-11T19:52:12.919Z,-5.88
2023-01-11T19:54:44.371Z,-5.97
2023-01-11T19:57:14.364Z,-5.92
2023-01-11T19:59:42.639Z,-6.12
2023-01-11T20:02:12.884Z,-6.27
2023-01-11T20:04:40.850Z,-6.37
2023-01-11T20:07:09.425Z,-6.34
2023-01-11T20:09:40.043Z,-6.40
2023-01-11T20:12:12.882Z,-6.56
2023-01-11T20:14:40.843Z,-6.47
2023-01-11T20:17:08.626Z,-6.22
2023-01-11T20:19:35.853Z,-6.26
2023-01-11T20:22:03.268Z,-6.14
2023-01-11T20:24:31.821Z,-6.26
2023-01-11T20:27:02.959Z,-6.33
2023-01-11T20:29:30.337Z,-6.20
2023-01-11T20:32:10.509Z,-6.47
2023-01-11T20:34:45.106Z,-6.57
2023-01-11T20:37:12.106Z,-6.74
2023-01-11T20:39:39.216Z,-6.55
2023-01-11T20:42:06.251Z,-6.50
2023-01-11T20:44:33.252Z,-6.54
2023-01-11T20:47:00.759Z,-6.39
2023-01-11T20:49:29.429Z,-6.32
2023-01-11T20:51:57.096Z,-6.15
2023-01-11T20:54:24.395Z,-6.00
2023-01-11T20:56:51.860Z,-6.08
2023-01-11T20:59:20.490Z,-6.03
2023-01-11T21:01:49.285Z,-6.14
2023-01-11T21:04:17.862Z,-6.33
2023-01-11T21:06:48.206Z,-6.46
2023-01-11T21:09:20.609Z,-6.58
2023-01-11T21:11:54.148Z,-6.56
2023-01-11T21:14:22.519Z,-6.59
2023-01-11T21:16:49.898Z,-6.53
2023-01-11T21:19:17.455Z,-6.55
2023-01-11T21:21:49.603Z,-6.44
2023-01-11T21:24:17.180Z,-6.70
2023-01-11T21:26:45.829Z,-6.59
2023-01-11T21:29:13.525Z,-6.54
2023-01-11T21:31:41.464Z,-6.78
2023-01-11T21:34:11.401Z,-6.57
2023-01-11T21:36:38.781Z,-6.52
2023-01-11T21:39:06.069Z,-6.63
2023-01-11T21:41:52.713Z,-6.48
2023-01-11T21:44:21.186Z,-6.68
2023-01-11T21:46:48.976Z,-6.50
2023-01-11T21:49:17.103Z,-6.48
2023-01-11T21:51:44.202Z,-6.39
2023-01-11T21:54:13.844Z,-6.37
2023-01-11T21:56:44.191Z,-6.25
2023-01-11T21:59:11.919Z,-6.23
2023-01-11T22:01:40.653Z,-6.16
2023-01-11T22:04:09.590Z,-6.05
2023-01-11T22:06:44.081Z,-6.05
2023-01-11T22:09:12.154Z,-6.21
2023-01-11T22:11:39.820Z,-6.06
2023-01-11T22:14:08.875Z,-6.08
2023-01-11T22:16:36.994Z,-6.24
2023-01-11T22:19:07.467Z,-6.08
2023-01-11T22:21:36.302Z,-5.95
2023-01-11T22:24:04.923Z,-6.06
2023-01-11T22:26:38.677Z,-6.10
2023-01-11T22:29:12.416Z,-6.03
2023-01-11T22:31:42.315Z,-5.81
2023-01-11T22:34:10.685Z,-5.72
2023-01-11T22:36:38.215Z,-5.87
2023-01-11T22:39:05.580Z,-5.94
2023-01-11T22:41:32.635Z,-6.08
2023-01-11T22:43:59.822Z,-5.98
2023-01-11T22:46:27.838Z,-5.89
2023-01-11T22:48:55.313Z,-5.88
2023-01-11T22:51:25.068Z,-5.72
2023-01-11T22:53:53.518Z,-5.83
2023-01-11T22:56:25.041Z,-5.78
2023-01-11T22:58:56.745Z,-5.70
2023-01-11T23:01:26.109Z,-5.69
2023-01-11T23:03:54.664Z,-5.69
2023-01-11T23:06:25.261Z,-5.67
2023-01-11T23:08:53.309Z,-5.85
2023-01-11T23:11:41.887Z,-5.83
2023-01-11T23:14:12.608Z,-5.85
2023-01-11T23:16:40.648Z,-5.73
2023-01-11T23:19:08.893Z,-5.80
2023-01-11T23:21:39.216Z,-6.10
2023-01-11T23:24:06.729Z,-5.96
2023-01-11T23:26:33.980Z,-5.82
2023-01-11T23:29:00.976Z,-5.76
2023-01-11T23:31:29.558Z,-5.81
2023-01-11T23:34:01.171Z,-5.76
2023-01-11T23:36:31.648Z,-5.84
2023-01-11T23:38:59.335Z,-5.82
2023-01-11T23:41:45.550Z,-5.82
2023-01-11T23:44:14.662Z,-5.85
2023-01-11T23:47:00.790Z,-5.86
2023-01-11T23:49:29.154Z,-5.67
2023-01-11T23:51:56.974Z,-5.47
2023-01-11T23:54:28.023Z,-5.58
2023-01-11T23:56:55.859Z,-5.48
2023-01-11T23:59:23.845Z,-5.43
